»·PEaware :: N27JP KSBP-KSMX

N27JP :: KSBP-KSMX

FLIGHT INFORMATION

Flight Status: Arrived
Operator: Privately registered:
United States
More flights under this callsign
Pilot: Weston J. (31543)
Aircraft: CESSNA 172 SKYHAWK
(C172)
More flights by this aircraft type
Origin: KSBP San Luis Co Regl
United States
Destination: KSMX Santa Maria Pub/Capt Hancock
United States
More flights between these airports :: More routes between these airports
Route:
File this flight plan on PilotEdge
Remarks: noffs
Altitude:
(Current/Filed)
0ft
Speed:
(Current/Filed)
0kts
Departed: 18-Sep-20 10:03 AM
Arrived: 18-Sep-20 10:21 AM
Distance/Time
Traveled:
6877nm/0:18
Distance/Time
To Go:
Arrived

Flight Plot

Page will automatically refresh every two minutes.


Map Options




Map Legend


Flown Route
Filed Route
Departure Airport
Arrival Airport
Navaid (VOR, NDB)
Fix

Horizontal Profiles

Position Reports

Time Latitude Longitude Heading Altitude Ground
Speed
18-Sep-20 09:23 34.898663 -120.450272 0 248ft 14kts
18-Sep-20 09:24 0.000408 0.013975 359 3ft 0kts
18-Sep-20 09:25 0.000408 0.013975 359 3ft 0kts
18-Sep-20 09:26 0.000408 0.013975 359 3ft 0kts
18-Sep-20 09:27 0.000408 0.013975 359 3ft 0kts
18-Sep-20 09:28 0.000408 0.013975 359 3ft 0kts
18-Sep-20 09:29 0.000408 0.013975 359 3ft 0kts
18-Sep-20 09:30 0.000408 0.013975 359 3ft 0kts
18-Sep-20 09:31 0.000408 0.013975 359 3ft 0kts
18-Sep-20 09:32 0.000408 0.013975 359 3ft 0kts
18-Sep-20 09:33 0.000408 0.013975 359 3ft 0kts
18-Sep-20 09:34 0.000408 0.013975 359 3ft 0kts
18-Sep-20 09:35 0.000408 0.013975 359 3ft 0kts
18-Sep-20 09:36 0.000408 0.013975 359 3ft 0kts
18-Sep-20 09:37 0.000408 0.013975 359 3ft 0kts
18-Sep-20 09:38 0.000408 0.013975 359 3ft 0kts
18-Sep-20 09:39 0.000408 0.013975 359 3ft 0kts
18-Sep-20 09:40 0.000408 0.013975 359 3ft 0kts
18-Sep-20 09:41 0.000408 0.013975 359 3ft 0kts
18-Sep-20 09:42 0.000408 0.013975 359 3ft 0kts
18-Sep-20 09:44 0.000408 0.013975 359 3ft 0kts
18-Sep-20 09:44 0.000408 0.013975 359 3ft 0kts
18-Sep-20 09:45 0.000408 0.013975 359 3ft 0kts
18-Sep-20 09:46 0.000408 0.013975 359 3ft 0kts
18-Sep-20 09:47 0.000408 0.013975 359 3ft 0kts
18-Sep-20 09:48 0.000408 0.013975 359 3ft 0kts
18-Sep-20 09:49 0.000408 0.013975 359 3ft 0kts
18-Sep-20 09:50 35.236153 -120.636047 31 205ft 0kts
18-Sep-20 09:51 35.236153 -120.636047 31 205ft 0kts
18-Sep-20 09:52 35.236153 -120.636047 31 205ft 0kts
18-Sep-20 09:53 35.236153 -120.636047 31 205ft 0kts
18-Sep-20 09:54 35.236153 -120.636047 31 205ft 0kts
18-Sep-20 09:55 35.236153 -120.636047 31 205ft 0kts
18-Sep-20 09:56 35.236153 -120.636047 31 205ft 0kts
18-Sep-20 09:57 35.236153 -120.636047 31 205ft 0kts
18-Sep-20 09:58 35.236153 -120.636048 31 205ft 0kts
18-Sep-20 09:59 35.236010 -120.636052 130 206ft 5kts
18-Sep-20 10:00 35.234855 -120.634769 125 211ft 12kts
18-Sep-20 10:01 35.233229 -120.632420 214 219ft 0kts
18-Sep-20 10:02 35.233671 -120.634552 304 210ft 46kts
18-Sep-20 10:03 35.247288 -120.656930 306 755ft 90kts
18-Sep-20 10:04 35.238010 -120.675693 157 1515ft 94kts
18-Sep-20 10:05 35.223429 -120.648230 126 2229ft 99kts
18-Sep-20 10:06 35.206316 -120.621085 129 2905ft 96kts
18-Sep-20 10:07 35.202902 -120.587908 107 3301ft 119kts
18-Sep-20 10:08 35.177040 -120.560109 147 3302ft 127kts
18-Sep-20 10:09 35.147410 -120.536146 147 3299ft 127kts
18-Sep-20 10:10 35.117775 -120.512152 147 3301ft 127kts
18-Sep-20 10:11 35.083762 -120.503397 162 3301ft 127kts
18-Sep-20 10:12 35.049550 -120.493386 175 3298ft 126kts
18-Sep-20 10:13 35.013608 -120.487828 170 2901ft 131kts
18-Sep-20 10:14 34.977781 -120.482621 171 2119ft 130kts
18-Sep-20 10:15 34.943018 -120.472521 141 1336ft 127kts
18-Sep-20 10:16 34.919382 -120.443618 135 1273ft 116kts
18-Sep-20 10:17 34.898012 -120.415543 132 1272ft 115kts
18-Sep-20 10:18 34.875294 -120.412286 266 998ft 88kts
18-Sep-20 10:19 34.886393 -120.438304 314 522ft 86kts
18-Sep-20 10:20 34.897963 -120.450289 0 249ft 0kts
18-Sep-20 10:21 34.897963 -120.450289 0 249ft 0kts
18-Sep-20 10:22 34.898417 -120.450289 1 248ft 11kts
18-Sep-20 10:23 0.000408 0.013975 0 3ft 0kts
18-Sep-20 10:24 0.000408 0.013975 0 3ft 0kts
18-Sep-20 10:25 0.000408 0.013975 0 3ft 0kts
18-Sep-20 10:26 0.000408 0.013975 0 3ft 0kts
18-Sep-20 10:27 0.000408 0.013975 0 3ft 0kts
18-Sep-20 10:28 0.000408 0.013975 0 3ft 0kts
18-Sep-20 10:29 0.000408 0.013975 0 3ft 0kts
18-Sep-20 10:30 0.000408 0.013975 0 3ft 0kts
18-Sep-20 10:31 0.000408 0.013975 0 3ft 0kts
18-Sep-20 10:32 0.000408 0.013975 0 3ft 0kts
18-Sep-20 10:33 0.000408 0.013975 0 3ft 0kts
18-Sep-20 10:34 0.000408 0.013975 0 3ft 0kts

Navigation Log

Ident Type
Flight plan parsing failed, navigation log unavailable